Aviation Digital Data Service (ADDS)

Output produced by METARs form (1216 UTC 15 December 2017)
found at http://aviationweather.gov/adds/metars/
 
KDET 151120Z 1512/1612 22005KT P6SM -SHSN OVC035 
     FM151300 21008KT 5SM -SHSN OVC025 
     FM151700 23012G25KT 4SM -SHSN OVC020 
     TEMPO 1518/1521 2SM -SHSN OVC015 
     FM152100 27012KT 5SM -SHSN OVC015 
     FM152300 26014KT P6SM -SHSN OVC025 
     FM160300 26008KT P6SM OVC035